• Join FlightAware (Why Join?)
  • Login
  • US Flag 
07:19PM EDT


 

Airport Tracker/Info


-or-


 

Live Flight TrackerFlight Track Log ✈ TRS30 ✈ 29-Apr-2012 ✈ KDAY - KBWI

Flight Track Log - Related Links

Times and Time Zones

All times are in EDT time to prevent confusion due to time zone crossing. See the TRS30 flight status page for this flight to view local times or setup timezone preferences in your user account.

Time Position Orientation Groundspeed Altitude Reporting Facility
EDT Latitude Longitude Course Direction KTS MPH feet Rate Location/Type
06:22PM 39.9117 -84.2200 77° East 170 196 1,600  Level Indianapolis Center
06:24PM 39.9244 -84.1472 79° East 192 221 3,800 1,440 Climbing Indianapolis Center
06:25PM 39.9372 -84.0606 79° East 225 259 4,700 1,440 Climbing Indianapolis Center
06:26PM 39.9522 -83.9606 78° East 253 291 6,800 2,280 Climbing Indianapolis Center
06:27PM 39.9694 -83.8522 79° East 288 331 9,300 2,040 Climbing Indianapolis Center
06:28PM 39.9861 -83.7386 79° East 304 350 10,900 1,500 Climbing Indianapolis Center
06:29PM 40.0050 -83.6111 81° East 344 396 12,300 1,380 Climbing Indianapolis Center
06:30PM 40.0197 -83.4867 78° East 370 426 13,700 1,680 Climbing Indianapolis Center
06:31PM 40.0444 -83.3400 79° East 398 458 15,700 1,860 Climbing Indianapolis Center
06:32PM 40.0669 -83.1881 79° East 420 483 17,500 1,800 Climbing Indianapolis Center
06:33PM 40.0894 -83.0333 79° East 432 497 19,300 1,740 Climbing Indianapolis Center
06:34PM 40.1136 -82.8622 79° East 432 497 21,000 840 Climbing Indianapolis Center
06:35PM 40.1356 -82.7100 84° East 432 497 21,000 300 Level Indianapolis Center
06:36PM 40.1489 -82.5494 95° East 432 497 21,700 1,140 Climbing Indianapolis Center
06:37PM 40.1369 -82.3867 96° East 440 506 23,300 1,500 Climbing Indianapolis Center
06:38PM 40.1247 -82.2242 95° East 445 512 24,700 1,200 Climbing Indianapolis Center
06:39PM 40.1144 -82.0558 96° East 461 531 25,800 1,200 Climbing Indianapolis Center
06:41PM 40.0886 -81.7175 95° East 497 572 28,300 1,260 Climbing Cleveland Center
06:42PM 40.0756 -81.5408 95° East 497 572 29,500 1,140 Climbing Cleveland Center
06:43PM 40.0625 -81.3617 96° East 497 572 30,600 720 Climbing Cleveland Center
06:44PM 40.0489 -81.1853 97° East 497 572 31,000 180 Climbing Cleveland Center
06:45PM 40.0331 -81.0061 102° East 497 572 31,000  Level Cleveland Center
06:46PM 40.0044 -80.8297 104° East 503 579 31,000  Level Cleveland Center
06:47PM 39.9714 -80.6536 103° East 498 573 31,000  Level Cleveland Center
06:48PM 39.9419 -80.4911 104° East 504 580 31,000 -540 Level Cleveland Center
06:49PM 39.9083 -80.3153 105° East 499 574 30,000 -1,320 Descending Cleveland Center
06:50PM 39.8725 -80.1367 104° East 499 574 28,400 -1,740 Descending Cleveland Center
06:51PM 39.8403 -79.9639 104° East 499 574 26,600 -1,680 Descending Cleveland Center
06:52PM 39.8081 -79.7994 105° East 483 556 25,100 -840 Descending Cleveland Center
06:53PM 39.7733 -79.6322 105° East 473 544 25,000 -60 Descending Cleveland Center
06:54PM 39.7386 -79.4681 104° East 468 539 25,000  Level Cleveland Center
06:54PM 39.7156 -79.3519 104° East 469 540 25,000  Level Washington Center
06:55PM 39.6867 -79.2022 105° East 475 547 25,000  Level Washington Center
06:56PM 39.6519 -79.0361 109° East 475 547 25,000  Level Washington Center
06:57PM 39.6086 -78.8722 105° East 481 554 25,000  Level Washington Center
06:58PM 39.5756 -78.7092 106° East 481 554 25,000 -840 Level Washington Center
06:59PM 39.5397 -78.5517 106° East 470 541 23,400 -2,880 Descending Washington Center
07:00PM 39.5042 -78.3889 106° East 465 535 19,300 -3,240 Descending Washington Center
07:01PM 39.4683 -78.2261 99° East 465 535 16,900 -2,160 Descending Washington Center
07:02PM 39.4506 -78.0778 91° East 445 512 15,000 -1,140 Descending Washington Center
07:03PM 39.4494 -77.9297 91° East 422 486 14,700 -1,200 Descending Washington Center
07:04PM 39.4478 -77.7847 91° East 411 473 12,700 -1,920 Descending Washington Center
07:05PM 39.4461 -77.6475 91° East 398 458 11,000 -900 Descending Washington Center
07:06PM 39.4442 -77.5158 89° East 380 437 11,000  Level Washington Center
07:07PM 39.4461 -77.3814 82° East 375 432 11,000  Level Washington Center
07:08PM 39.4606 -77.2528 87° East 363 418 11,000 -540 Level Washington Center
07:09PM 39.4667 -77.1167 75° East 332 382 10,000 -1,380 Descending Potomac TRACON
07:10PM 39.4833 -77.0333 90° East 320 368 8,600 -1,560 Descending Potomac TRACON
07:11PM 39.4833 -76.9000 102° East 303 349 6,900 -1,560 Descending Potomac TRACON
07:12PM 39.4667 -76.8000 102° East 296 341 5,300 -960 Descending Potomac TRACON
07:13PM 39.4500 -76.7000 102° East 287 330 5,000 -180 Descending Potomac TRACON
07:14PM 39.4333 -76.6000 142° Southeast 292 336 5,000 -360 Level Potomac TRACON
07:15PM 39.3667 -76.5333 150° Southeast 288 331 4,300 -540 Descending Potomac TRACON
07:16PM 39.3000 -76.4833 169° South 276 318 4,000 -480 Descending Potomac TRACON
07:17PM 39.2333 -76.4667 205° Southwest 276 318 3,400 -240 Descending Potomac TRACON
07:22PM 39.0667 -76.5667 311° West 168 193 2,600 -300 Descending Potomac TRACON
07:23PM 39.1000 -76.6167 339° North 168 193 1,600 -900 Descending Potomac TRACON
07:24PM 39.1333 -76.6333 339° North 138 159 900 -780 Descending Potomac TRACON